Time;durP1;ratioP1;P1;durP2;ratioP2;P2;SDS_P1;SDS_P2;PMS_P1;PMS_P2;Temp;Humidity;BMP_temperature;BMP_pressure;BME280_temperature;BME280_humidity;BME280_pressure;Samples;Min_cycle;Max_cycle;Signal;HPM_P1;HPM_P2
2023/07/21 00:01:05;;;;;;;0.47;0.30;;;25.30;41.80;;;;;;5035815;28;20021;-62
2023/07/21 00:03:32;;;;;;;0.60;0.40;;;25.20;41.70;;;;;;5037810;28;20060;-62
2023/07/21 00:06:00;;;;;;;0.22;0.20;;;25.30;41.80;;;;;;5037288;28;20369;-62
2023/07/21 00:08:29;;;;;;;0.63;0.30;;;25.30;41.70;;;;;;5037678;28;20025;-62
2023/07/21 00:10:59;;;;;;;0.30;0.30;;;25.20;41.60;;;;;;5024306;28;20088;-62
2023/07/21 00:13:26;;;;;;;2.25;0.60;;;25.20;41.60;;;;;;5036437;28;20037;-61
2023/07/21 00:15:56;;;;;;;0.52;0.40;;;25.20;41.60;;;;;;5034802;28;20040;-59
2023/07/21 00:18:22;;;;;;;0.40;0.30;;;25.20;41.60;;;;;;5037056;28;20025;-64
2023/07/21 00:20:49;;;;;;;0.60;0.45;;;25.20;41.50;;;;;;5034833;28;20303;-60
2023/07/21 00:23:17;;;;;;;0.47;0.38;;;25.20;41.60;;;;;;5036565;28;20110;-63
2023/07/21 00:25:46;;;;;;;0.40;0.30;;;25.20;41.50;;;;;;5032572;28;20228;-62
2023/07/21 00:28:13;;;;;;;0.63;0.30;;;25.20;41.50;;;;;;5037543;28;20029;-61
2023/07/21 00:30:39;;;;;;;0.40;0.40;;;25.20;41.50;;;;;;5044946;28;20025;-61
2023/07/21 00:33:07;;;;;;;0.73;0.50;;;25.20;41.50;;;;;;5040132;28;20047;-60
2023/07/21 00:35:34;;;;;;;0.50;0.40;;;25.20;41.50;;;;;;5019036;28;20100;-61
2023/07/21 00:38:01;;;;;;;0.55;0.30;;;25.20;41.50;;;;;;5022277;28;20371;-63
2023/07/21 00:40:27;;;;;;;0.88;0.38;;;25.20;41.60;;;;;;5022634;28;20026;-61
2023/07/21 00:42:54;;;;;;;0.50;0.40;;;25.20;41.50;;;;;;5037996;28;21468;-60
2023/07/21 00:45:20;;;;;;;0.43;0.38;;;25.20;41.50;;;;;;5024415;28;20067;-60
2023/07/21 00:47:47;;;;;;;0.40;0.40;;;25.20;41.50;;;;;;5022245;28;20029;-60
2023/07/21 00:50:14;;;;;;;0.65;0.30;;;25.20;41.50;;;;;;5042890;28;20065;-62
2023/07/21 00:52:40;;;;;;;0.68;0.40;;;25.20;41.50;;;;;;5037452;28;20041;-65
2023/07/21 00:55:07;;;;;;;0.70;0.35;;;25.20;41.50;;;;;;5021958;28;20124;-60
2023/07/21 00:57:34;;;;;;;0.73;0.40;;;25.10;41.50;;;;;;5043739;28;20036;-61
2023/07/21 01:00:06;;;;;;;0.47;0.40;;;25.20;41.50;;;;;;5046354;28;20319;-61
2023/07/21 01:02:33;;;;;;;0.75;0.40;;;25.10;41.50;;;;;;5039139;28;20132;-62
2023/07/21 01:04:59;;;;;;;0.50;0.40;;;25.20;41.50;;;;;;5039248;28;20439;-60
2023/07/21 01:07:26;;;;;;;0.50;0.43;;;25.20;41.50;;;;;;5038927;28;20056;-62
2023/07/21 01:09:52;;;;;;;0.50;0.50;;;25.10;41.50;;;;;;5042685;28;20108;-63
2023/07/21 01:12:18;;;;;;;0.88;0.40;;;25.10;41.50;;;;;;5016641;28;20955;-61
2023/07/21 01:14:45;;;;;;;0.55;0.38;;;25.10;41.50;;;;;;5044959;28;20037;-62
2023/07/21 01:17:14;;;;;;;0.70;0.50;;;25.10;41.50;;;;;;5038215;28;20056;-59
2023/07/21 01:19:41;;;;;;;0.65;0.40;;;25.10;41.50;;;;;;5045345;28;20135;-63
2023/07/21 01:22:25;;;;;;;0.30;0.30;;;25.10;41.50;;;;;;5041123;28;20029;-62
2023/07/21 01:24:51;;;;;;;0.40;0.40;;;25.10;41.50;;;;;;5036429;28;20040;-62
2023/07/21 01:27:22;;;;;;;0.43;0.32;;;25.10;41.50;;;;;;5022954;28;20111;-59
2023/07/21 01:29:49;;;;;;;0.50;0.40;;;25.00;41.50;;;;;;5046205;28;20037;-61
2023/07/21 01:32:18;;;;;;;0.38;0.30;;;25.10;41.60;;;;;;5041853;28;20028;-62
2023/07/21 01:34:45;;;;;;;0.43;0.40;;;25.10;41.60;;;;;;5025066;28;20091;-61
2023/07/21 01:37:13;;;;;;;0.73;0.40;;;25.10;41.60;;;;;;5049231;28;20033;-61
2023/07/21 01:39:40;;;;;;;0.57;0.50;;;25.00;41.50;;;;;;5043870;28;20441;-62
2023/07/21 01:42:07;;;;;;;0.70;0.50;;;25.00;41.50;;;;;;5040393;28;20045;-59
2023/07/21 01:44:34;;;;;;;0.20;0.20;;;25.00;41.50;;;;;;5040235;28;20108;-62
2023/07/21 01:47:00;;;;;;;0.60;0.45;;;25.00;41.50;;;;;;5022980;28;20068;-57
2023/07/21 01:49:26;;;;;;;0.47;0.32;;;25.00;41.50;;;;;;5018044;28;20402;-63
2023/07/21 01:51:58;;;;;;;0.32;0.30;;;25.00;41.60;;;;;;5014672;28;20022;-61
2023/07/21 01:54:28;;;;;;;0.52;0.45;;;25.00;42.20;;;;;;5022523;28;20061;-61
2023/07/21 01:57:04;;;;;;;0.73;0.40;;;25.00;41.50;;;;;;5019953;28;20021;-63
2023/07/21 01:59:30;;;;;;;0.55;0.30;;;25.00;41.50;;;;;;5016863;28;20429;-61
2023/07/21 02:01:57;;;;;;;1.27;0.60;;;25.00;41.60;;;;;;5018467;28;20025;-62
2023/07/21 02:04:24;;;;;;;0.68;0.50;;;25.00;41.60;;;;;;5021279;28;20033;-62
2023/07/21 02:06:50;;;;;;;0.30;0.30;;;25.00;41.60;;;;;;5019880;28;20030;-62
2023/07/21 02:09:16;;;;;;;1.05;0.40;;;25.00;41.60;;;;;;5022989;28;20417;-61
2023/07/21 02:11:45;;;;;;;0.35;0.30;;;25.00;41.60;;;;;;5019513;28;20029;-62
2023/07/21 02:14:38;;;;;;;0.40;0.30;;;25.00;41.60;;;;;;5018893;28;20033;-62
2023/07/21 02:17:06;;;;;;;0.82;0.40;;;25.00;41.60;;;;;;5012553;28;20061;-61
2023/07/21 02:19:32;;;;;;;0.43;0.40;;;25.00;41.60;;;;;;5024195;28;20500;-63
2023/07/21 02:21:58;;;;;;;0.38;0.38;;;24.90;41.60;;;;;;5018073;28;20677;-62
2023/07/21 02:24:25;;;;;;;0.60;0.60;;;24.90;41.60;;;;;;5021886;28;20085;-61
2023/07/21 02:26:51;;;;;;;0.70;0.47;;;25.00;41.60;;;;;;5018060;28;20026;-66
2023/07/21 02:29:17;;;;;;;0.65;0.40;;;25.00;41.60;;;;;;5022640;28;20437;-63
2023/07/21 02:31:43;;;;;;;0.38;0.38;;;24.90;41.60;;;;;;5011243;28;20094;-62
2023/07/21 02:34:09;;;;;;;1.02;0.32;;;24.90;41.60;;;;;;5041147;28;20026;-64
2023/07/21 02:36:35;;;;;;;0.38;0.20;;;24.90;41.60;;;;;;5025649;28;20437;-61
2023/07/21 02:39:01;;;;;;;1.05;0.40;;;24.90;41.60;;;;;;5022491;28;20148;-59
2023/07/21 02:41:27;;;;;;;0.75;0.40;;;24.90;42.20;;;;;;5024942;28;20033;-60
2023/07/21 02:43:52;;;;;;;0.30;0.30;;;24.90;41.60;;;;;;5022021;28;21260;-61
2023/07/21 02:46:18;;;;;;;0.57;0.40;;;24.90;41.60;;;;;;5020779;28;20097;-62
2023/07/21 02:48:44;;;;;;;0.30;0.30;;;24.90;41.60;;;;;;5021794;28;20049;-61
2023/07/21 02:51:10;;;;;;;0.52;0.40;;;24.90;41.60;;;;;;5024107;28;20433;-61
2023/07/21 02:53:42;;;;;;;0.80;0.43;;;24.90;41.60;;;;;;5022027;28;20033;-63
2023/07/21 02:56:09;;;;;;;0.20;0.20;;;24.90;41.70;;;;;;5017980;28;20048;-59
2023/07/21 02:58:53;;;;;;;0.95;0.43;;;24.90;41.70;;;;;;5023760;28;20052;-60
2023/07/21 03:01:22;;;;;;;0.55;0.52;;;24.90;41.70;;;;;;5020061;28;20021;-59
2023/07/21 03:03:48;;;;;;;0.75;0.50;;;24.90;41.80;;;;;;5005187;28;20030;-61
2023/07/21 03:06:15;;;;;;;0.60;0.43;;;24.90;41.80;;;;;;5015992;28;20021;-60
2023/07/21 03:08:42;;;;;;;0.52;0.40;;;24.90;41.80;;;;;;5019766;28;20313;-61
2023/07/21 03:11:13;;;;;;;0.60;0.45;;;24.90;41.90;;;;;;5021927;28;20104;-59
2023/07/21 03:13:50;;;;;;;0.73;0.32;;;24.90;41.90;;;;;;5017876;28;20026;-59
2023/07/21 03:16:16;;;;;;;0.55;0.40;;;24.80;41.90;;;;;;5013623;28;20082;-63
2023/07/21 03:18:48;;;;;;;0.45;0.30;;;24.80;42.50;;;;;;5019863;28;20042;-61
2023/07/21 03:21:19;;;;;;;0.68;0.40;;;24.80;41.90;;;;;;5018138;28;20372;-61
2023/07/21 03:23:45;;;;;;;0.38;0.30;;;24.80;42.00;;;;;;5022316;28;20044;-62
2023/07/21 03:26:15;;;;;;;0.40;0.40;;;24.80;42.00;;;;;;5019057;28;20030;-61
2023/07/21 03:28:42;;;;;;;0.73;0.40;;;24.80;42.00;;;;;;5021437;28;20048;-61
2023/07/21 03:31:11;;;;;;;0.50;0.40;;;24.80;42.10;;;;;;5012424;28;20418;-61
2023/07/21 03:34:07;;;;;;;0.40;0.40;;;24.80;42.10;;;;;;5008567;28;20034;-61
2023/07/21 03:36:33;;;;;;;1.13;0.50;;;24.80;42.10;;;;;;5016137;28;20038;-62
2023/07/21 03:39:00;;;;;;;0.75;0.50;;;24.80;42.10;;;;;;5022702;28;20049;-60
2023/07/21 03:41:26;;;;;;;1.45;0.40;;;24.80;42.10;;;;;;5015268;28;20109;-61
2023/07/21 03:43:52;;;;;;;0.40;0.35;;;24.80;42.10;;;;;;5024044;28;20115;-60
2023/07/21 03:46:19;;;;;;;0.40;0.32;;;24.80;42.20;;;;;;5006606;28;20068;-61
2023/07/21 03:49:05;;;;;;;0.75;0.47;;;24.80;42.20;;;;;;4999437;28;20355;-60
2023/07/21 03:51:32;;;;;;;1.75;0.60;;;24.70;42.10;;;;;;4998416;28;20034;-62
2023/07/21 03:53:59;;;;;;;0.63;0.30;;;24.70;42.20;;;;;;4998153;28;20022;-60
2023/07/21 03:56:25;;;;;;;0.47;0.40;;;24.70;42.20;;;;;;5003550;28;20053;-58
2023/07/21 03:58:53;;;;;;;0.52;0.40;;;24.70;42.20;;;;;;4999852;28;20046;-60
2023/07/21 04:01:19;;;;;;;0.47;0.40;;;24.70;42.20;;;;;;5017901;28;20049;-61
2023/07/21 04:03:47;;;;;;;0.60;0.52;;;24.70;42.20;;;;;;5002095;28;20026;-61
2023/07/21 04:06:14;;;;;;;0.63;0.45;;;24.70;42.10;;;;;;4994483;28;20029;-62
2023/07/21 04:08:41;;;;;;;0.28;0.28;;;24.70;42.10;;;;;;4998845;28;20040;-58
2023/07/21 04:11:08;;;;;;;0.40;0.38;;;24.70;42.10;;;;;;4998945;28;20463;-60
2023/07/21 04:13:34;;;;;;;0.30;0.30;;;24.70;42.20;;;;;;5009611;28;20091;-62
2023/07/21 04:16:00;;;;;;;1.05;0.50;;;24.70;42.20;;;;;;5003807;28;20417;-62
2023/07/21 04:18:26;;;;;;;0.73;0.50;;;24.70;42.20;;;;;;5006392;28;20041;-61
2023/07/21 04:20:51;;;;;;;0.85;0.40;;;24.70;42.20;;;;;;4999549;28;20037;-60
2023/07/21 04:23:18;;;;;;;0.57;0.40;;;24.70;42.20;;;;;;5004612;28;20057;-60
2023/07/21 04:25:46;;;;;;;0.57;0.40;;;24.70;42.20;;;;;;5002405;28;20025;-60
2023/07/21 04:28:13;;;;;;;0.30;0.30;;;24.70;42.20;;;;;;4998508;28;20180;-62
2023/07/21 04:30:39;;;;;;;0.30;0.30;;;24.70;42.20;;;;;;5003960;28;20045;-61
2023/07/21 04:33:05;;;;;;;0.40;0.35;;;24.70;42.20;;;;;;5008871;28;20448;-63
2023/07/21 04:35:32;;;;;;;0.52;0.50;;;24.70;42.20;;;;;;5001012;28;20042;-63
2023/07/21 04:38:00;;;;;;;0.45;0.40;;;24.70;42.20;;;;;;5001425;28;20124;-62
2023/07/21 04:40:31;;;;;;;0.80;0.30;;;24.70;42.20;;;;;;5005674;28;20099;-61
2023/07/21 04:42:57;;;;;;;0.60;0.40;;;24.70;42.20;;;;;;5002200;28;20022;-59
2023/07/21 04:45:23;;;;;;;1.33;0.60;;;24.70;42.20;;;;;;5007498;28;20488;-62
2023/07/21 04:48:03;;;;;;;2.03;0.60;;;24.70;42.20;;;;;;5023506;28;20021;-61
2023/07/21 04:50:34;;;;;;;2.30;0.70;;;24.70;42.20;;;;;;5021431;28;20074;-62
2023/07/21 04:53:03;;;;;;;0.60;0.55;;;24.70;42.20;;;;;;5025881;28;20280;-62
2023/07/21 04:55:29;;;;;;;0.43;0.43;;;24.70;42.20;;;;;;5019058;28;20034;-60
2023/07/21 04:57:55;;;;;;;1.65;0.38;;;24.70;42.20;;;;;;5023204;28;20025;-59
2023/07/21 05:00:21;;;;;;;0.73;0.40;;;24.70;42.20;;;;;;5024783;28;20045;-61
2023/07/21 05:02:47;;;;;;;0.40;0.40;;;24.70;42.80;;;;;;5036830;28;20026;-60
2023/07/21 05:05:14;;;;;;;0.88;0.40;;;24.70;42.20;;;;;;5021427;28;20394;-60
2023/07/21 05:07:50;;;;;;;0.50;0.40;;;24.70;42.20;;;;;;5018043;28;20025;-60
2023/07/21 05:10:16;;;;;;;1.17;0.50;;;24.70;42.20;;;;;;5017206;28;20044;-61
2023/07/21 05:12:42;;;;;;;0.80;0.50;;;24.70;42.20;;;;;;5036778;28;20026;-61
2023/07/21 05:15:27;;;;;;;0.93;0.50;;;24.70;42.20;;;;;;5020173;28;20405;-64
2023/07/21 05:18:02;;;;;;;0.70;0.50;;;24.70;42.20;;;;;;5018794;28;20064;-63
2023/07/21 05:20:50;;;;;;;0.80;0.50;;;24.70;42.20;;;;;;5013876;28;20335;-64
2023/07/21 05:23:42;;;;;;;0.65;0.52;;;24.70;42.20;;;;;;5016452;28;20049;-62
2023/07/21 05:26:13;;;;;;;0.93;0.40;;;24.70;42.20;;;;;;5019320;28;20037;-61
2023/07/21 05:28:39;;;;;;;0.50;0.40;;;24.70;42.30;;;;;;5022108;28;20108;-62
2023/07/21 05:31:06;;;;;;;0.90;0.52;;;24.70;42.30;;;;;;5014379;28;20955;-59
2023/07/21 05:33:42;;;;;;;0.60;0.57;;;24.70;42.90;;;;;;5024333;28;20061;-63
2023/07/21 05:36:10;;;;;;;0.57;0.45;;;24.70;42.40;;;;;;5018749;28;20136;-61
2023/07/21 05:38:38;;;;;;;0.50;0.40;;;24.70;42.40;;;;;;4998881;28;20091;-61
2023/07/21 05:41:07;;;;;;;0.40;0.40;;;24.70;42.40;;;;;;5016635;28;20037;-61
2023/07/21 05:43:35;;;;;;;0.60;0.50;;;24.70;42.40;;;;;;5024045;28;20060;-59
2023/07/21 05:46:06;;;;;;;0.55;0.43;;;24.70;42.40;;;;;;5010456;28;20046;-61
2023/07/21 05:48:33;;;;;;;1.85;0.68;;;24.70;42.40;;;;;;5002229;28;20095;-59
2023/07/21 05:51:02;;;;;;;0.70;0.47;;;24.80;42.50;;;;;;5004066;28;20491;-60
2023/07/21 05:53:28;;;;;;;0.40;0.40;;;24.80;42.60;;;;;;5004707;28;20057;-60
2023/07/21 05:55:55;;;;;;;1.95;0.47;;;24.80;42.50;;;;;;4989158;28;20027;-61
2023/07/21 05:58:41;;;;;;;0.60;0.40;;;24.80;42.40;;;;;;4994716;28;20422;-62
2023/07/21 06:01:12;;;;;;;0.90;0.43;;;24.80;42.40;;;;;;4992216;28;20034;-61
2023/07/21 06:03:38;;;;;;;0.90;0.60;;;24.80;42.40;;;;;;5000459;28;20038;-60
2023/07/21 06:06:05;;;;;;;0.60;0.50;;;24.80;42.40;;;;;;5002624;28;20030;-62
2023/07/21 06:08:51;;;;;;;1.17;0.50;;;24.80;42.40;;;;;;4997201;28;20082;-59
2023/07/21 06:11:37;;;;;;;3.17;0.60;;;24.80;42.30;;;;;;4993010;28;20033;-64
2023/07/21 06:14:22;;;;;;;1.00;0.50;;;24.80;42.30;;;;;;5004534;28;20117;-61
2023/07/21 06:16:55;;;;;;;0.70;0.60;;;24.90;42.30;;;;;;5003122;28;20031;-62
2023/07/21 06:19:21;;;;;;;0.57;0.43;;;24.90;42.20;;;;;;5014926;28;20112;-61
2023/07/21 06:21:47;;;;;;;0.60;0.50;;;24.90;42.20;;;;;;5005878;28;20453;-61
2023/07/21 06:24:17;;;;;;;0.73;0.40;;;24.90;42.10;;;;;;5008085;28;20068;-59
2023/07/21 06:26:43;;;;;;;0.75;0.50;;;24.90;42.10;;;;;;5005097;28;20044;-59
2023/07/21 06:29:11;;;;;;;2.00;0.80;;;24.90;42.00;;;;;;5002883;28;20094;-63
2023/07/21 06:31:37;;;;;;;0.95;0.60;;;24.90;42.00;;;;;;5006545;28;20384;-62
2023/07/21 06:34:13;;;;;;;1.23;0.47;;;24.90;41.90;;;;;;5005953;28;20057;-61
2023/07/21 06:37:04;;;;;;;0.93;0.70;;;24.90;41.90;;;;;;4997563;28;20496;-63
2023/07/21 06:39:36;;;;;;;0.93;0.60;;;24.90;41.90;;;;;;5000251;28;20113;-62
2023/07/21 06:42:08;;;;;;;1.00;0.50;;;24.90;41.90;;;;;;5006883;28;20022;-62
2023/07/21 06:45:01;;;;;;;0.75;0.50;;;24.90;41.80;;;;;;5011960;28;21258;-60
2023/07/21 06:47:30;;;;;;;1.02;0.57;;;24.90;41.80;;;;;;5020369;28;20036;-62
2023/07/21 06:50:29;;;;;;;0.90;0.63;;;24.90;41.80;;;;;;4993432;28;20041;-61
2023/07/21 06:52:55;;;;;;;0.73;0.60;;;24.90;41.70;;;;;;5027286;28;20153;-64
2023/07/21 06:55:22;;;;;;;1.15;0.70;;;24.90;41.80;;;;;;5023661;28;20421;-62
2023/07/21 06:57:49;;;;;;;0.85;0.50;;;24.90;41.70;;;;;;5045842;28;20149;-63
2023/07/21 07:00:16;;;;;;;0.68;0.50;;;25.00;41.70;;;;;;5025287;28;20120;-64
2023/07/21 07:02:48;;;;;;;1.38;0.57;;;25.00;41.70;;;;;;5034809;28;20040;-61
2023/07/21 07:05:16;;;;;;;1.63;0.57;;;24.90;41.70;;;;;;5024333;28;20158;-61
2023/07/21 07:07:42;;;;;;;1.83;0.80;;;25.00;41.70;;;;;;5016917;28;20087;-64
2023/07/21 07:10:08;;;;;;;1.08;0.70;;;25.00;41.60;;;;;;5018901;28;20037;-62
2023/07/21 07:12:34;;;;;;;0.50;0.40;;;25.00;41.60;;;;;;5020232;28;20103;-63
2023/07/21 07:15:02;;;;;;;0.98;0.70;;;25.00;41.60;;;;;;5045095;28;20108;-62
2023/07/21 07:17:28;;;;;;;0.80;0.50;;;25.00;41.50;;;;;;5043799;28;20039;-59
2023/07/21 07:19:55;;;;;;;0.52;0.30;;;25.00;41.40;;;;;;5046046;28;20504;-62
2023/07/21 07:22:21;;;;;;;1.20;0.65;;;25.00;41.40;;;;;;5020205;28;20044;-60
2023/07/21 07:24:48;;;;;;;0.75;0.47;;;25.00;41.40;;;;;;5019383;28;20032;-60
2023/07/21 07:27:13;;;;;;;0.95;0.57;;;25.00;41.40;;;;;;5042396;28;20055;-62
2023/07/21 07:29:47;;;;;;;0.88;0.45;;;25.00;41.40;;;;;;5039355;28;20025;-58
2023/07/21 07:32:13;;;;;;;1.33;0.60;;;25.10;41.40;;;;;;5037819;28;20048;-61
2023/07/21 07:34:41;;;;;;;0.80;0.50;;;25.10;41.30;;;;;;5046987;28;20028;-61
2023/07/21 07:37:07;;;;;;;1.45;0.50;;;25.10;41.20;;;;;;5045202;28;20051;-62
2023/07/21 07:39:33;;;;;;;0.57;0.50;;;25.10;41.10;;;;;;5043048;28;20132;-58
2023/07/21 07:41:59;;;;;;;0.63;0.50;;;25.10;41.10;;;;;;5036978;28;20107;-61
2023/07/21 07:44:25;;;;;;;0.80;0.50;;;25.10;41.00;;;;;;5038651;28;20041;-60
2023/07/21 07:46:55;;;;;;;0.50;0.40;;;25.20;41.00;;;;;;5045544;28;20489;-60
2023/07/21 07:49:21;;;;;;;0.77;0.30;;;25.20;40.90;;;;;;5043272;28;20043;-60
2023/07/21 07:51:48;;;;;;;0.88;0.50;;;25.20;40.90;;;;;;5048885;28;20047;-61
2023/07/21 07:54:17;;;;;;;1.08;0.60;;;25.20;40.80;;;;;;5027581;28;20079;-61
2023/07/21 07:56:43;;;;;;;2.50;0.77;;;25.20;40.70;;;;;;5044672;28;20026;-64
2023/07/21 07:59:08;;;;;;;1.20;0.52;;;25.20;40.60;;;;;;5050487;28;20064;-62
2023/07/21 08:01:34;;;;;;;1.58;0.50;;;25.20;40.50;;;;;;5053555;28;20029;-61
2023/07/21 08:04:00;;;;;;;0.75;0.50;;;25.20;40.50;;;;;;5046238;28;20241;-61
2023/07/21 08:06:26;;;;;;;0.63;0.43;;;25.20;40.40;;;;;;5022083;28;20199;-61
2023/07/21 08:08:52;;;;;;;1.63;0.50;;;25.30;40.40;;;;;;5045612;28;20052;-64
2023/07/21 08:11:18;;;;;;;0.63;0.50;;;25.30;40.30;;;;;;5050258;28;20371;-57
2023/07/21 08:13:44;;;;;;;1.33;0.60;;;25.30;40.30;;;;;;5050211;28;20467;-61
2023/07/21 08:16:12;;;;;;;1.05;0.77;;;25.30;40.30;;;;;;5049896;28;20605;-61
2023/07/21 08:18:38;;;;;;;0.80;0.60;;;25.30;40.20;;;;;;5047702;28;20029;-64
2023/07/21 08:21:20;;;;;;;1.05;0.60;;;25.30;40.20;;;;;;5050665;28;20025;-60
2023/07/21 08:23:48;;;;;;;0.70;0.40;;;25.30;40.20;;;;;;5049167;28;20079;-61
2023/07/21 08:26:14;;;;;;;1.20;0.40;;;25.30;40.10;;;;;;5050163;28;20068;-59
2023/07/21 08:28:40;;;;;;;1.15;0.50;;;25.30;40.10;;;;;;5051080;28;20102;-59
2023/07/21 08:31:06;;;;;;;1.38;0.50;;;25.30;40.00;;;;;;5051313;28;20036;-61
2023/07/21 08:33:32;;;;;;;0.47;0.35;;;25.30;40.00;;;;;;5049886;28;20101;-63
2023/07/21 08:35:58;;;;;;;0.50;0.40;;;25.30;40.00;;;;;;5050477;28;20025;-60
2023/07/21 08:38:24;;;;;;;0.40;0.30;;;25.30;40.00;;;;;;5049837;28;20037;-63
2023/07/21 08:40:55;;;;;;;0.68;0.50;;;25.30;40.00;;;;;;5048084;28;20089;-60
2023/07/21 08:43:22;;;;;;;0.82;0.43;;;25.30;39.90;;;;;;5049388;28;20037;-61
2023/07/21 08:45:49;;;;;;;0.90;0.40;;;25.40;40.00;;;;;;5049930;28;20120;-59
2023/07/21 08:48:17;;;;;;;0.70;0.40;;;25.30;39.90;;;;;;5049537;28;20108;-61
2023/07/21 08:50:47;;;;;;;0.63;0.43;;;25.40;40.00;;;;;;5049735;28;20151;-60
2023/07/21 08:53:13;;;;;;;0.32;0.30;;;25.40;39.90;;;;;;5049728;28;20025;-61
2023/07/21 08:55:39;;;;;;;0.40;0.40;;;25.40;39.80;;;;;;5049468;28;20544;-59
2023/07/21 08:58:06;;;;;;;0.65;0.50;;;25.40;39.80;;;;;;5047736;28;20044;-61
2023/07/21 09:00:32;;;;;;;0.63;0.40;;;25.40;39.70;;;;;;5049593;28;20169;-58
2023/07/21 09:03:00;;;;;;;0.80;0.40;;;25.40;39.70;;;;;;5049912;28;20025;-59
2023/07/21 09:05:26;;;;;;;1.17;0.30;;;25.40;39.60;;;;;;5049367;28;20077;-64
2023/07/21 09:07:52;;;;;;;0.40;0.30;;;25.50;39.60;;;;;;5046855;28;20083;-61
2023/07/21 09:10:32;;;;;;;0.47;0.38;;;25.50;39.50;;;;;;5039665;28;20068;-63
2023/07/21 09:13:01;;;;;;;0.88;0.40;;;25.50;39.50;;;;;;5040930;28;20309;-62
2023/07/21 09:15:27;;;;;;;0.50;0.40;;;25.50;39.60;;;;;;5042693;28;20335;-59
2023/07/21 09:17:53;;;;;;;0.80;0.40;;;25.50;39.60;;;;;;5038233;28;20029;-58
2023/07/21 09:20:19;;;;;;;0.80;0.60;;;25.50;39.60;;;;;;5046523;28;20113;-61
2023/07/21 09:22:49;;;;;;;0.75;0.40;;;25.50;39.50;;;;;;5040257;28;20053;-59
2023/07/21 09:25:22;;;;;;;0.63;0.40;;;25.50;39.50;;;;;;5045769;28;20354;-59
2023/07/21 09:27:55;;;;;;;0.77;0.50;;;25.50;39.40;;;;;;5036545;28;20086;-63
2023/07/21 09:30:22;;;;;;;0.45;0.40;;;25.50;39.30;;;;;;5042104;28;20033;-60
2023/07/21 09:32:53;;;;;;;0.40;0.38;;;25.50;39.20;;;;;;5040775;28;20057;-62
2023/07/21 09:35:19;;;;;;;0.73;0.40;;;25.50;39.00;;;;;;5039394;28;20043;-63
2023/07/21 09:37:50;;;;;;;0.45;0.30;;;25.50;39.00;;;;;;5040561;28;20029;-61
2023/07/21 09:40:16;;;;;;;0.65;0.60;;;25.50;38.80;;;;;;5037935;28;20037;-61
2023/07/21 09:42:43;;;;;;;0.75;0.40;;;25.50;38.70;;;;;;5026615;28;20098;-59
2023/07/21 09:45:11;;;;;;;0.68;0.50;;;25.50;38.60;;;;;;5038990;28;20084;-63
2023/07/21 09:47:42;;;;;;;0.20;0.20;;;25.60;38.60;;;;;;5035262;28;20087;-59
2023/07/21 09:50:09;;;;;;;0.70;0.43;;;25.50;38.40;;;;;;5042874;28;20121;-63
2023/07/21 09:52:39;;;;;;;1.23;0.50;;;25.50;38.30;;;;;;5042213;28;20160;-62
2023/07/21 09:55:10;;;;;;;0.60;0.50;;;25.60;38.30;;;;;;5037023;28;20121;-62
2023/07/21 09:57:45;;;;;;;0.63;0.40;;;25.60;38.30;;;;;;5041760;28;20333;-61
2023/07/21 10:00:14;;;;;;;0.85;0.35;;;25.60;38.20;;;;;;5044967;28;20047;-59
2023/07/21 10:02:45;;;;;;;0.70;0.22;;;25.60;38.10;;;;;;5047605;28;20081;-59
2023/07/21 10:05:13;;;;;;;0.60;0.50;;;25.60;38.10;;;;;;5039944;28;20029;-60
2023/07/21 10:07:43;;;;;;;0.73;0.40;;;25.60;38.00;;;;;;5039364;28;20413;-59
2023/07/21 10:10:11;;;;;;;0.57;0.40;;;25.60;38.00;;;;;;5037634;28;20067;-64
2023/07/21 10:12:52;;;;;;;0.30;0.30;;;25.60;38.00;;;;;;5046385;28;20348;-63
2023/07/21 10:15:32;;;;;;;0.47;0.40;;;25.60;38.60;;;;;;5041226;28;20363;-61
2023/07/21 10:18:04;;;;;;;0.70;0.30;;;25.60;37.90;;;;;;5041196;28;20022;-62
2023/07/21 10:20:40;;;;;;;0.77;0.43;;;25.60;37.80;;;;;;5046253;28;20347;-65
2023/07/21 10:23:07;;;;;;;0.80;0.30;;;25.60;37.80;;;;;;5023772;28;20513;-63
2023/07/21 10:25:56;;;;;;;0.65;0.40;;;25.70;37.90;;;;;;5038748;28;20098;-64
2023/07/21 10:28:43;;;;;;;0.88;0.38;;;25.70;37.70;;;;;;5043964;28;20039;-65
2023/07/21 10:31:21;;;;;;;0.47;0.30;;;25.70;37.70;;;;;;5019269;28;20426;-62
2023/07/21 10:34:11;;;;;;;0.77;0.60;;;25.70;37.90;;;;;;5042050;28;20377;-63
2023/07/21 10:36:52;;;;;;;0.47;0.47;;;25.70;38.00;;;;;;5021602;28;20325;-59
2023/07/21 10:39:20;;;;;;;0.43;0.30;;;25.70;38.10;;;;;;5023634;28;20052;-59
2023/07/21 10:41:50;;;;;;;1.38;0.35;;;25.70;38.20;;;;;;5044434;28;20448;-63
2023/07/21 10:44:18;;;;;;;0.52;0.47;;;25.70;38.20;;;;;;5042655;28;20109;-62
2023/07/21 10:46:46;;;;;;;0.60;0.40;;;25.70;38.20;;;;;;5037077;28;20037;-60
2023/07/21 10:49:14;;;;;;;0.63;0.40;;;25.80;38.10;;;;;;5039126;28;20068;-62
2023/07/21 10:51:49;;;;;;;0.40;0.40;;;25.80;38.00;;;;;;5042153;28;20029;-62
2023/07/21 10:54:16;;;;;;;1.05;0.40;;;25.80;38.00;;;;;;5043923;28;20063;-60
2023/07/21 10:56:51;;;;;;;1.38;0.40;;;25.80;38.00;;;;;;5049042;28;20056;-62
2023/07/21 10:59:19;;;;;;;0.40;0.38;;;25.80;37.90;;;;;;5046607;28;20047;-60
2023/07/21 11:01:51;;;;;;;0.70;0.50;;;25.80;37.90;;;;;;5045484;28;20029;-60
2023/07/21 11:04:20;;;;;;;2.17;0.40;;;25.80;37.80;;;;;;5027927;28;20040;-60
2023/07/21 11:06:51;;;;;;;0.80;0.50;;;25.80;37.80;;;;;;5046927;28;20060;-61
2023/07/21 11:09:18;;;;;;;0.57;0.20;;;25.80;37.70;;;;;;5044971;28;20037;-60
2023/07/21 11:11:45;;;;;;;0.98;0.60;;;25.80;37.60;;;;;;5045169;28;20021;-60
2023/07/21 11:14:12;;;;;;;0.68;0.40;;;25.80;37.60;;;;;;5037887;28;20164;-59
2023/07/21 11:16:59;;;;;;;0.40;0.30;;;25.80;37.50;;;;;;5041362;28;20464;-62
2023/07/21 11:19:27;;;;;;;0.40;0.30;;;25.80;37.50;;;;;;5038185;28;20116;-63
2023/07/21 11:21:54;;;;;;;1.05;0.50;;;25.80;37.50;;;;;;5019037;28;20440;-61
2023/07/21 11:24:28;;;;;;;0.98;0.40;;;25.80;37.30;;;;;;5044326;28;20170;-61
2023/07/21 11:26:56;;;;;;;0.65;0.40;;;25.90;37.30;;;;;;5038658;28;20104;-61
2023/07/21 11:29:24;;;;;;;1.30;0.50;;;25.90;37.20;;;;;;5045242;28;20464;-60
2023/07/21 11:31:50;;;;;;;1.95;0.40;;;25.90;37.10;;;;;;5046062;28;20033;-61
2023/07/21 11:34:23;;;;;;;0.70;0.50;;;25.90;37.10;;;;;;5044219;28;20444;-61
2023/07/21 11:36:55;;;;;;;0.75;0.50;;;25.90;37.00;;;;;;5045721;28;20025;-59
2023/07/21 11:39:22;;;;;;;1.27;0.60;;;26.00;37.10;;;;;;5011634;28;20455;-61
2023/07/21 11:41:49;;;;;;;1.35;0.40;;;25.90;37.00;;;;;;5043167;28;20072;-61
2023/07/21 11:44:32;;;;;;;0.90;0.50;;;26.00;37.00;;;;;;5041002;28;20044;-61
2023/07/21 11:47:12;;;;;;;1.67;0.57;;;26.00;36.90;;;;;;5042230;28;20117;-60
2023/07/21 11:49:39;;;;;;;0.43;0.43;;;26.00;36.80;;;;;;5047793;28;20052;-62
2023/07/21 11:52:07;;;;;;;0.52;0.40;;;26.00;36.80;;;;;;5047667;28;20102;-61
2023/07/21 11:54:40;;;;;;;0.98;0.40;;;26.00;36.80;;;;;;5023867;28;20033;-62
2023/07/21 11:57:07;;;;;;;0.73;0.40;;;26.00;37.40;;;;;;5044992;28;20135;-63
2023/07/21 11:59:33;;;;;;;0.57;0.38;;;26.10;36.90;;;;;;5025241;28;20314;-60
2023/07/21 12:02:03;;;;;;;1.48;0.50;;;26.10;36.90;;;;;;5048111;28;20048;-60
2023/07/21 12:04:30;;;;;;;1.13;0.50;;;26.10;36.90;;;;;;5046805;28;20032;-61
2023/07/21 12:06:56;;;;;;;0.30;0.30;;;26.10;36.80;;;;;;5042421;28;20469;-62
2023/07/21 12:09:23;;;;;;;0.40;0.30;;;26.10;36.80;;;;;;5043532;28;20116;-62
2023/07/21 12:11:49;;;;;;;0.55;0.28;;;26.10;36.80;;;;;;5046297;28;20135;-61
2023/07/21 12:14:15;;;;;;;0.70;0.40;;;26.10;36.70;;;;;;5045770;28;20147;-61
2023/07/21 12:16:42;;;;;;;0.50;0.30;;;26.10;36.70;;;;;;5040124;28;20033;-61
2023/07/21 12:19:09;;;;;;;0.70;0.38;;;26.10;36.80;;;;;;5040509;28;20115;-60
2023/07/21 12:21:36;;;;;;;0.47;0.47;;;26.10;36.80;;;;;;5019685;28;20120;-60
2023/07/21 12:24:02;;;;;;;0.63;0.43;;;26.10;36.80;;;;;;5040744;28;20057;-60
2023/07/21 12:26:27;;;;;;;0.68;0.50;;;26.10;36.90;;;;;;5041880;28;20357;-61
2023/07/21 12:28:54;;;;;;;0.35;0.35;;;26.10;37.00;;;;;;5048286;28;20081;-61
2023/07/21 12:31:20;;;;;;;0.40;0.40;;;26.10;37.00;;;;;;5042238;28;20036;-59
2023/07/21 12:33:48;;;;;;;0.63;0.43;;;26.20;37.10;;;;;;5045878;28;20460;-60
2023/07/21 12:36:19;;;;;;;0.98;0.40;;;26.20;37.10;;;;;;5044186;28;20033;-62
2023/07/21 12:38:46;;;;;;;0.40;0.30;;;26.20;37.20;;;;;;5043004;28;20366;-62
2023/07/21 12:41:12;;;;;;;1.77;0.30;;;26.20;37.20;;;;;;5044284;28;20094;-62
2023/07/21 12:43:39;;;;;;;0.50;0.40;;;26.20;37.10;;;;;;5042184;28;20036;-60
2023/07/21 12:46:05;;;;;;;0.60;0.40;;;26.20;37.20;;;;;;5040166;28;20049;-61
2023/07/21 12:48:33;;;;;;;0.35;0.30;;;26.20;37.20;;;;;;5021505;28;20055;-61
2023/07/21 12:51:00;;;;;;;0.60;0.40;;;26.20;37.10;;;;;;5019206;28;20093;-61
2023/07/21 12:53:28;;;;;;;1.15;0.40;;;26.20;37.10;;;;;;5042535;28;20124;-62
2023/07/21 12:55:55;;;;;;;1.15;0.52;;;26.20;37.20;;;;;;5025981;28;20105;-62
2023/07/21 12:58:23;;;;;;;0.40;0.40;;;26.20;37.30;;;;;;5051040;28;20115;-61